sensor_id;sensor_type;location;lat;lon;timestamp;P1;durP1;ratioP1;P2;durP2;ratioP2
1048;SDS011;513;51.444;7.196;2023-04-16T00:00:20;49.22;;;26.15;;
1048;SDS011;513;51.444;7.196;2023-04-16T00:02:47;66.97;;;28.30;;
1048;SDS011;513;51.444;7.196;2023-04-16T00:05:14;55.17;;;27.80;;
1048;SDS011;513;51.444;7.196;2023-04-16T00:07:40;63.67;;;30.58;;
1048;SDS011;513;51.444;7.196;2023-04-16T00:10:07;59.88;;;28.20;;
1048;SDS011;513;51.444;7.196;2023-04-16T00:12:34;57.67;;;27.40;;
1048;SDS011;513;51.444;7.196;2023-04-16T00:15:02;52.78;;;26.90;;
1048;SDS011;513;51.444;7.196;2023-04-16T00:17:29;51.80;;;25.92;;
1048;SDS011;513;51.444;7.196;2023-04-16T00:19:56;51.58;;;27.15;;
1048;SDS011;513;51.444;7.196;2023-04-16T00:22:22;51.78;;;27.52;;
1048;SDS011;513;51.444;7.196;2023-04-16T00:24:49;55.38;;;27.45;;
1048;SDS011;513;51.444;7.196;2023-04-16T00:27:17;60.83;;;29.13;;
1048;SDS011;513;51.444;7.196;2023-04-16T00:29:44;52.17;;;28.05;;
1048;SDS011;513;51.444;7.196;2023-04-16T00:32:12;59.25;;;29.10;;
1048;SDS011;513;51.444;7.196;2023-04-16T00:34:38;56.88;;;30.42;;
1048;SDS011;513;51.444;7.196;2023-04-16T00:37:05;65.30;;;31.23;;
1048;SDS011;513;51.444;7.196;2023-04-16T00:39:31;60.70;;;31.02;;
1048;SDS011;513;51.444;7.196;2023-04-16T00:41:58;66.00;;;32.10;;
1048;SDS011;513;51.444;7.196;2023-04-16T00:44:25;56.28;;;31.52;;
1048;SDS011;513;51.444;7.196;2023-04-16T00:46:53;53.20;;;30.08;;
1048;SDS011;513;51.444;7.196;2023-04-16T00:49:22;57.37;;;31.40;;
1048;SDS011;513;51.444;7.196;2023-04-16T00:51:49;56.88;;;30.23;;
1048;SDS011;513;51.444;7.196;2023-04-16T00:54:16;54.97;;;29.50;;
1048;SDS011;513;51.444;7.196;2023-04-16T00:56:43;51.90;;;29.67;;
1048;SDS011;513;51.444;7.196;2023-04-16T00:59:09;58.42;;;31.02;;
1048;SDS011;513;51.444;7.196;2023-04-16T01:01:36;62.28;;;33.05;;
1048;SDS011;513;51.444;7.196;2023-04-16T01:04:03;60.28;;;33.38;;
1048;SDS011;513;51.444;7.196;2023-04-16T01:06:32;56.42;;;32.67;;
1048;SDS011;513;51.444;7.196;2023-04-16T01:08:59;58.63;;;33.35;;
1048;SDS011;513;51.444;7.196;2023-04-16T01:11:25;59.93;;;32.63;;
1048;SDS011;513;51.444;7.196;2023-04-16T01:13:52;58.17;;;33.75;;
1048;SDS011;513;51.444;7.196;2023-04-16T01:16:19;66.38;;;35.38;;
1048;SDS011;513;51.444;7.196;2023-04-16T01:18:45;66.60;;;35.67;;
1048;SDS011;513;51.444;7.196;2023-04-16T01:21:13;65.50;;;36.05;;
1048;SDS011;513;51.444;7.196;2023-04-16T01:23:40;74.95;;;36.15;;
1048;SDS011;513;51.444;7.196;2023-04-16T01:26:07;70.20;;;36.85;;
1048;SDS011;513;51.444;7.196;2023-04-16T01:28:33;64.72;;;36.15;;
1048;SDS011;513;51.444;7.196;2023-04-16T01:31:00;64.95;;;35.08;;
1048;SDS011;513;51.444;7.196;2023-04-16T01:33:27;59.20;;;33.63;;
1048;SDS011;513;51.444;7.196;2023-04-16T01:35:54;60.03;;;33.17;;
1048;SDS011;513;51.444;7.196;2023-04-16T01:38:21;60.60;;;32.13;;
1048;SDS011;513;51.444;7.196;2023-04-16T01:40:48;60.40;;;33.92;;
1048;SDS011;513;51.444;7.196;2023-04-16T01:43:15;64.80;;;34.00;;
1048;SDS011;513;51.444;7.196;2023-04-16T01:45:41;69.22;;;34.15;;
1048;SDS011;513;51.444;7.196;2023-04-16T01:48:08;60.80;;;33.40;;
1048;SDS011;513;51.444;7.196;2023-04-16T01:50:34;61.35;;;30.75;;
1048;SDS011;513;51.444;7.196;2023-04-16T01:53:01;61.95;;;31.98;;
1048;SDS011;513;51.444;7.196;2023-04-16T01:55:30;57.47;;;31.85;;
1048;SDS011;513;51.444;7.196;2023-04-16T01:57:57;64.15;;;33.97;;
1048;SDS011;513;51.444;7.196;2023-04-16T02:00:23;60.67;;;33.92;;
1048;SDS011;513;51.444;7.196;2023-04-16T02:02:50;63.38;;;33.42;;
1048;SDS011;513;51.444;7.196;2023-04-16T02:05:17;63.88;;;33.58;;
1048;SDS011;513;51.444;7.196;2023-04-16T02:07:44;64.95;;;34.17;;
1048;SDS011;513;51.444;7.196;2023-04-16T02:10:10;61.15;;;32.13;;
1048;SDS011;513;51.444;7.196;2023-04-16T02:12:38;58.28;;;33.10;;
1048;SDS011;513;51.444;7.196;2023-04-16T02:15:05;58.03;;;31.73;;
1048;SDS011;513;51.444;7.196;2023-04-16T02:17:32;64.88;;;32.75;;
1048;SDS011;513;51.444;7.196;2023-04-16T02:19:59;57.47;;;31.58;;
1048;SDS011;513;51.444;7.196;2023-04-16T02:22:27;62.80;;;35.15;;
1048;SDS011;513;51.444;7.196;2023-04-16T02:24:54;61.80;;;35.50;;
1048;SDS011;513;51.444;7.196;2023-04-16T02:27:20;63.53;;;36.03;;
1048;SDS011;513;51.444;7.196;2023-04-16T02:29:48;68.20;;;37.10;;
1048;SDS011;513;51.444;7.196;2023-04-16T02:32:15;67.93;;;36.97;;
1048;SDS011;513;51.444;7.196;2023-04-16T02:34:42;58.10;;;33.22;;
1048;SDS011;513;51.444;7.196;2023-04-16T02:37:08;63.92;;;35.13;;
1048;SDS011;513;51.444;7.196;2023-04-16T02:39:35;65.65;;;35.85;;
1048;SDS011;513;51.444;7.196;2023-04-16T02:42:02;61.97;;;34.47;;
1048;SDS011;513;51.444;7.196;2023-04-16T02:44:28;58.77;;;32.87;;
1048;SDS011;513;51.444;7.196;2023-04-16T02:46:56;59.88;;;33.33;;
1048;SDS011;513;51.444;7.196;2023-04-16T03:18:43;56.88;;;33.58;;
1048;SDS011;513;51.444;7.196;2023-04-16T04:10:08;64.65;;;33.67;;
1048;SDS011;513;51.444;7.196;2023-04-16T04:12:37;65.05;;;35.47;;
1048;SDS011;513;51.444;7.196;2023-04-16T04:15:04;67.93;;;34.78;;
1048;SDS011;513;51.444;7.196;2023-04-16T04:17:31;66.05;;;35.13;;
1048;SDS011;513;51.444;7.196;2023-04-16T04:19:58;65.65;;;36.70;;
1048;SDS011;513;51.444;7.196;2023-04-16T04:22:24;66.07;;;36.90;;
1048;SDS011;513;51.444;7.196;2023-04-16T04:24:51;68.47;;;35.47;;
1048;SDS011;513;51.444;7.196;2023-04-16T04:27:18;66.50;;;35.75;;
1048;SDS011;513;51.444;7.196;2023-04-16T04:29:45;65.93;;;35.28;;
1048;SDS011;513;51.444;7.196;2023-04-16T04:32:12;67.57;;;35.88;;
1048;SDS011;513;51.444;7.196;2023-04-16T04:34:39;66.97;;;36.22;;
1048;SDS011;513;51.444;7.196;2023-04-16T04:37:05;69.18;;;35.38;;
1048;SDS011;513;51.444;7.196;2023-04-16T04:39:32;63.00;;;35.05;;
1048;SDS011;513;51.444;7.196;2023-04-16T04:41:59;69.18;;;35.10;;
1048;SDS011;513;51.444;7.196;2023-04-16T04:44:27;72.03;;;36.83;;
1048;SDS011;513;51.444;7.196;2023-04-16T04:46:55;66.47;;;35.77;;
1048;SDS011;513;51.444;7.196;2023-04-16T04:49:21;67.13;;;36.75;;
1048;SDS011;513;51.444;7.196;2023-04-16T04:51:48;74.15;;;39.38;;
1048;SDS011;513;51.444;7.196;2023-04-16T04:54:14;71.65;;;39.42;;
1048;SDS011;513;51.444;7.196;2023-04-16T04:56:41;70.00;;;37.50;;
1048;SDS011;513;51.444;7.196;2023-04-16T04:59:09;69.40;;;37.63;;
1048;SDS011;513;51.444;7.196;2023-04-16T05:01:36;65.82;;;35.00;;
1048;SDS011;513;51.444;7.196;2023-04-16T05:04:04;60.88;;;33.47;;
1048;SDS011;513;51.444;7.196;2023-04-16T05:06:31;60.20;;;33.17;;
1048;SDS011;513;51.444;7.196;2023-04-16T05:08:57;58.58;;;33.25;;
1048;SDS011;513;51.444;7.196;2023-04-16T05:11:24;60.22;;;33.40;;
1048;SDS011;513;51.444;7.196;2023-04-16T05:13:51;61.95;;;33.42;;
1048;SDS011;513;51.444;7.196;2023-04-16T05:16:17;62.07;;;33.20;;
1048;SDS011;513;51.444;7.196;2023-04-16T05:18:44;55.97;;;33.67;;
1048;SDS011;513;51.444;7.196;2023-04-16T05:21:12;56.15;;;32.67;;
1048;SDS011;513;51.444;7.196;2023-04-16T05:23:39;62.83;;;34.35;;
1048;SDS011;513;51.444;7.196;2023-04-16T05:26:05;60.03;;;34.15;;
1048;SDS011;513;51.444;7.196;2023-04-16T05:28:32;63.35;;;35.35;;
1048;SDS011;513;51.444;7.196;2023-04-16T05:30:58;63.53;;;34.70;;
1048;SDS011;513;51.444;7.196;2023-04-16T05:33:25;63.00;;;36.08;;
1048;SDS011;513;51.444;7.196;2023-04-16T05:35:51;59.00;;;33.80;;
1048;SDS011;513;51.444;7.196;2023-04-16T08:49:14;31.40;;;22.92;;
1048;SDS011;513;51.444;7.196;2023-04-16T08:54:11;32.00;;;24.50;;
1048;SDS011;513;51.444;7.196;2023-04-16T08:56:43;33.55;;;23.75;;
1048;SDS011;513;51.444;7.196;2023-04-16T08:59:10;32.83;;;23.80;;
